sensor_id;sensor_type;location;lat;lon;timestamp;temperature;humidity
55173;DHT22;41061;52.822;6.860;2024-01-10T00:01:34;-3.60;99.90
55173;DHT22;41061;52.822;6.860;2024-01-10T00:04:00;-3.70;99.90
55173;DHT22;41061;52.822;6.860;2024-01-10T00:06:26;-3.70;99.90
55173;DHT22;41061;52.822;6.860;2024-01-10T00:08:51;-3.70;99.90
55173;DHT22;41061;52.822;6.860;2024-01-10T00:11:17;-3.70;99.90
55173;DHT22;41061;52.822;6.860;2024-01-10T00:13:43;-3.70;99.90
55173;DHT22;41061;52.822;6.860;2024-01-10T00:16:12;-3.80;99.90
55173;DHT22;41061;52.822;6.860;2024-01-10T00:18:39;-3.80;99.90
55173;DHT22;41061;52.822;6.860;2024-01-10T00:21:10;-3.70;99.90
55173;DHT22;41061;52.822;6.860;2024-01-10T00:23:36;-3.70;99.90
55173;DHT22;41061;52.822;6.860;2024-01-10T00:26:01;-3.70;99.90
55173;DHT22;41061;52.822;6.860;2024-01-10T00:28:27;-3.70;99.90
55173;DHT22;41061;52.822;6.860;2024-01-10T00:30:52;-3.80;99.90
55173;DHT22;41061;52.822;6.860;2024-01-10T00:33:18;-3.80;99.90
55173;DHT22;41061;52.822;6.860;2024-01-10T00:35:44;-3.80;99.90
55173;DHT22;41061;52.822;6.860;2024-01-10T00:38:10;-3.90;99.90
55173;DHT22;41061;52.822;6.860;2024-01-10T00:40:36;-3.90;99.90
55173;DHT22;41061;52.822;6.860;2024-01-10T00:43:02;-3.90;99.90
55173;DHT22;41061;52.822;6.860;2024-01-10T00:45:28;-3.90;99.90
55173;DHT22;41061;52.822;6.860;2024-01-10T00:47:53;-4.00;99.90
55173;DHT22;41061;52.822;6.860;2024-01-10T00:50:19;-4.00;99.90
55173;DHT22;41061;52.822;6.860;2024-01-10T00:52:45;-4.00;99.90
55173;DHT22;41061;52.822;6.860;2024-01-10T00:55:11;-4.00;99.90
55173;DHT22;41061;52.822;6.860;2024-01-10T00:57:37;-4.10;99.90
55173;DHT22;41061;52.822;6.860;2024-01-10T01:00:07;-4.10;99.90
55173;DHT22;41061;52.822;6.860;2024-01-10T01:02:33;-4.10;99.90
55173;DHT22;41061;52.822;6.860;2024-01-10T01:04:58;-4.10;99.90
55173;DHT22;41061;52.822;6.860;2024-01-10T01:07:24;-4.10;99.90
55173;DHT22;41061;52.822;6.860;2024-01-10T01:09:50;-4.00;99.90
55173;DHT22;41061;52.822;6.860;2024-01-10T01:12:15;-4.10;99.90
55173;DHT22;41061;52.822;6.860;2024-01-10T01:14:41;-4.10;99.90
55173;DHT22;41061;52.822;6.860;2024-01-10T01:17:07;-4.10;99.90
55173;DHT22;41061;52.822;6.860;2024-01-10T01:19:32;-4.20;99.90
55173;DHT22;41061;52.822;6.860;2024-01-10T01:21:58;-4.10;99.90
55173;DHT22;41061;52.822;6.860;2024-01-10T01:24:24;-4.20;99.90
55173;DHT22;41061;52.822;6.860;2024-01-10T01:26:49;-4.20;99.90
55173;DHT22;41061;52.822;6.860;2024-01-10T01:29:16;-4.20;99.90
55173;DHT22;41061;52.822;6.860;2024-01-10T01:31:41;-4.20;99.90
55173;DHT22;41061;52.822;6.860;2024-01-10T01:34:07;-4.20;99.90
55173;DHT22;41061;52.822;6.860;2024-01-10T01:36:33;-4.20;99.90
55173;DHT22;41061;52.822;6.860;2024-01-10T01:38:59;-4.20;99.90
55173;DHT22;41061;52.822;6.860;2024-01-10T01:41:25;-4.20;99.90
55173;DHT22;41061;52.822;6.860;2024-01-10T01:43:51;-4.20;99.90
55173;DHT22;41061;52.822;6.860;2024-01-10T01:46:16;-4.20;99.90
55173;DHT22;41061;52.822;6.860;2024-01-10T01:48:43;-4.20;99.90
55173;DHT22;41061;52.822;6.860;2024-01-10T01:51:09;-4.10;99.90
55173;DHT22;41061;52.822;6.860;2024-01-10T01:53:36;-4.10;99.90
55173;DHT22;41061;52.822;6.860;2024-01-10T01:56:06;-4.10;99.90
55173;DHT22;41061;52.822;6.860;2024-01-10T01:58:32;-4.20;99.90
55173;DHT22;41061;52.822;6.860;2024-01-10T02:01:00;-4.10;99.90
55173;DHT22;41061;52.822;6.860;2024-01-10T02:03:26;-4.10;99.90
55173;DHT22;41061;52.822;6.860;2024-01-10T02:05:52;-4.10;99.90
55173;DHT22;41061;52.822;6.860;2024-01-10T02:08:19;-4.10;99.90
55173;DHT22;41061;52.822;6.860;2024-01-10T02:10:45;-4.10;99.90
55173;DHT22;41061;52.822;6.860;2024-01-10T02:13:10;-4.10;99.90
55173;DHT22;41061;52.822;6.860;2024-01-10T02:15:37;-4.10;99.90
55173;DHT22;41061;52.822;6.860;2024-01-10T02:18:04;-4.10;99.90
55173;DHT22;41061;52.822;6.860;2024-01-10T02:20:31;-4.10;99.90
55173;DHT22;41061;52.822;6.860;2024-01-10T02:22:57;-4.10;99.90
55173;DHT22;41061;52.822;6.860;2024-01-10T02:25:23;-4.20;99.90
55173;DHT22;41061;52.822;6.860;2024-01-10T02:27:49;-4.20;99.90
55173;DHT22;41061;52.822;6.860;2024-01-10T02:30:15;-4.20;99.90
55173;DHT22;41061;52.822;6.860;2024-01-10T02:32:41;-4.20;99.90
55173;DHT22;41061;52.822;6.860;2024-01-10T02:35:07;-4.20;99.90
55173;DHT22;41061;52.822;6.860;2024-01-10T02:37:33;-4.20;99.90
55173;DHT22;41061;52.822;6.860;2024-01-10T02:39:59;-4.30;99.90
55173;DHT22;41061;52.822;6.860;2024-01-10T02:42:27;-4.30;99.90
55173;DHT22;41061;52.822;6.860;2024-01-10T02:44:53;-4.30;99.90
55173;DHT22;41061;52.822;6.860;2024-01-10T02:47:19;-4.40;99.90
55173;DHT22;41061;52.822;6.860;2024-01-10T02:49:45;-4.30;99.90
55173;DHT22;41061;52.822;6.860;2024-01-10T02:52:11;-4.30;99.90
55173;DHT22;41061;52.822;6.860;2024-01-10T02:54:38;-4.30;99.90
55173;DHT22;41061;52.822;6.860;2024-01-10T02:57:03;-4.20;99.90
55173;DHT22;41061;52.822;6.860;2024-01-10T02:59:29;-4.20;99.90
55173;DHT22;41061;52.822;6.860;2024-01-10T03:01:55;-4.20;99.90
55173;DHT22;41061;52.822;6.860;2024-01-10T03:04:20;-4.20;99.90
55173;DHT22;41061;52.822;6.860;2024-01-10T03:06:46;-4.20;99.90
55173;DHT22;41061;52.822;6.860;2024-01-10T03:09:12;-4.20;99.90
55173;DHT22;41061;52.822;6.860;2024-01-10T03:11:37;-4.20;99.90
55173;DHT22;41061;52.822;6.860;2024-01-10T03:14:10;-4.20;99.90
55173;DHT22;41061;52.822;6.860;2024-01-10T03:16:36;-4.20;99.90
55173;DHT22;41061;52.822;6.860;2024-01-10T03:19:03;-4.20;99.90
55173;DHT22;41061;52.822;6.860;2024-01-10T03:21:29;-4.30;99.90
55173;DHT22;41061;52.822;6.860;2024-01-10T03:24:01;-4.30;99.90
55173;DHT22;41061;52.822;6.860;2024-01-10T03:26:28;-4.30;99.90
55173;DHT22;41061;52.822;6.860;2024-01-10T03:28:56;-4.30;99.90
55173;DHT22;41061;52.822;6.860;2024-01-10T03:31:22;-4.30;99.90
55173;DHT22;41061;52.822;6.860;2024-01-10T03:33:48;-4.30;99.90
55173;DHT22;41061;52.822;6.860;2024-01-10T03:36:17;-4.30;99.90
55173;DHT22;41061;52.822;6.860;2024-01-10T03:38:43;-4.30;99.90
55173;DHT22;41061;52.822;6.860;2024-01-10T03:41:16;-4.40;99.90
55173;DHT22;41061;52.822;6.860;2024-01-10T03:43:43;-4.50;99.90
55173;DHT22;41061;52.822;6.860;2024-01-10T03:46:09;-4.40;99.90
55173;DHT22;41061;52.822;6.860;2024-01-10T03:48:36;-4.40;99.90
55173;DHT22;41061;52.822;6.860;2024-01-10T03:51:02;-4.50;99.90
55173;DHT22;41061;52.822;6.860;2024-01-10T03:53:28;-4.40;99.90
55173;DHT22;41061;52.822;6.860;2024-01-10T03:55:54;-4.40;99.90
55173;DHT22;41061;52.822;6.860;2024-01-10T03:58:20;-4.40;99.90
55173;DHT22;41061;52.822;6.860;2024-01-10T04:00:46;-4.40;99.90
55173;DHT22;41061;52.822;6.860;2024-01-10T04:03:11;-4.40;99.90
55173;DHT22;41061;52.822;6.860;2024-01-10T04:05:37;-4.50;99.90
55173;DHT22;41061;52.822;6.860;2024-01-10T04:08:03;-4.50;99.90
55173;DHT22;41061;52.822;6.860;2024-01-10T04:10:29;-4.50;99.90
55173;DHT22;41061;52.822;6.860;2024-01-10T04:12:55;-4.50;99.90
55173;DHT22;41061;52.822;6.860;2024-01-10T04:15:21;-4.50;99.90
55173;DHT22;41061;52.822;6.860;2024-01-10T04:17:46;-4.50;99.90
55173;DHT22;41061;52.822;6.860;2024-01-10T04:20:13;-4.60;99.90
55173;DHT22;41061;52.822;6.860;2024-01-10T04:22:38;-4.60;99.90
55173;DHT22;41061;52.822;6.860;2024-01-10T04:25:06;-4.60;99.90
55173;DHT22;41061;52.822;6.860;2024-01-10T04:27:32;-4.60;99.90
55173;DHT22;41061;52.822;6.860;2024-01-10T04:29:58;-4.60;99.90
55173;DHT22;41061;52.822;6.860;2024-01-10T04:32:24;-4.60;99.90
55173;DHT22;41061;52.822;6.860;2024-01-10T04:34:50;-4.60;99.90
55173;DHT22;41061;52.822;6.860;2024-01-10T04:37:16;-4.50;99.90
55173;DHT22;41061;52.822;6.860;2024-01-10T04:39:41;-4.50;99.90
55173;DHT22;41061;52.822;6.860;2024-01-10T04:42:10;-4.50;99.90
55173;DHT22;41061;52.822;6.860;2024-01-10T04:44:36;-4.50;99.90
55173;DHT22;41061;52.822;6.860;2024-01-10T04:47:03;-4.50;99.90
55173;DHT22;41061;52.822;6.860;2024-01-10T04:49:29;-4.50;99.90
55173;DHT22;41061;52.822;6.860;2024-01-10T04:51:54;-4.50;99.90
55173;DHT22;41061;52.822;6.860;2024-01-10T04:54:20;-4.50;99.90
55173;DHT22;41061;52.822;6.860;2024-01-10T04:56:46;-4.50;99.90
55173;DHT22;41061;52.822;6.860;2024-01-10T04:59:12;-4.50;99.90
55173;DHT22;41061;52.822;6.860;2024-01-10T05:01:37;-4.50;99.90
55173;DHT22;41061;52.822;6.860;2024-01-10T05:04:03;-4.50;99.90
55173;DHT22;41061;52.822;6.860;2024-01-10T05:06:29;-4.50;99.90
55173;DHT22;41061;52.822;6.860;2024-01-10T05:08:55;-4.50;99.90
55173;DHT22;41061;52.822;6.860;2024-01-10T05:11:24;-4.50;99.90
55173;DHT22;41061;52.822;6.860;2024-01-10T05:13:50;-4.50;99.90
55173;DHT22;41061;52.822;6.860;2024-01-10T05:16:16;-4.50;99.90
55173;DHT22;41061;52.822;6.860;2024-01-10T05:18:42;-4.60;99.90
55173;DHT22;41061;52.822;6.860;2024-01-10T05:21:08;-4.50;99.90
55173;DHT22;41061;52.822;6.860;2024-01-10T05:23:34;-4.50;99.90
55173;DHT22;41061;52.822;6.860;2024-01-10T05:26:01;-4.50;99.90
55173;DHT22;41061;52.822;6.860;2024-01-10T05:28:27;-4.50;99.90
55173;DHT22;41061;52.822;6.860;2024-01-10T05:30:52;-4.60;99.90
55173;DHT22;41061;52.822;6.860;2024-01-10T05:33:19;-4.50;99.90
55173;DHT22;41061;52.822;6.860;2024-01-10T05:35:45;-4.50;99.90
55173;DHT22;41061;52.822;6.860;2024-01-10T05:38:11;-4.50;99.90
55173;DHT22;41061;52.822;6.860;2024-01-10T05:40:37;-4.50;99.90
55173;DHT22;41061;52.822;6.860;2024-01-10T05:43:02;-4.50;99.90
55173;DHT22;41061;52.822;6.860;2024-01-10T05:45:28;-4.50;99.90
55173;DHT22;41061;52.822;6.860;2024-01-10T05:47:55;-4.50;99.90
55173;DHT22;41061;52.822;6.860;2024-01-10T05:50:21;-4.60;99.90
55173;DHT22;41061;52.822;6.860;2024-01-10T05:52:47;-4.60;99.90
55173;DHT22;41061;52.822;6.860;2024-01-10T05:55:13;-4.60;99.90
55173;DHT22;41061;52.822;6.860;2024-01-10T05:57:39;-4.60;99.90
55173;DHT22;41061;52.822;6.860;2024-01-10T06:00:06;-4.60;99.90
55173;DHT22;41061;52.822;6.860;2024-01-10T06:02:39;-4.60;99.90
55173;DHT22;41061;52.822;6.860;2024-01-10T06:05:11;-4.60;99.90
55173;DHT22;41061;52.822;6.860;2024-01-10T06:07:40;-4.60;99.90
55173;DHT22;41061;52.822;6.860;2024-01-10T06:10:09;-4.70;99.90
55173;DHT22;41061;52.822;6.860;2024-01-10T06:12:35;-4.70;99.90
55173;DHT22;41061;52.822;6.860;2024-01-10T06:15:02;-4.70;99.90
55173;DHT22;41061;52.822;6.860;2024-01-10T06:17:28;-4.70;99.90
55173;DHT22;41061;52.822;6.860;2024-01-10T06:19:54;-4.70;99.90
55173;DHT22;41061;52.822;6.860;2024-01-10T06:22:20;-4.70;99.90
55173;DHT22;41061;52.822;6.860;2024-01-10T06:24:50;-4.80;99.90
55173;DHT22;41061;52.822;6.860;2024-01-10T06:27:16;-4.80;99.90
55173;DHT22;41061;52.822;6.860;2024-01-10T06:29:44;-4.80;99.90
55173;DHT22;41061;52.822;6.860;2024-01-10T06:32:10;-4.80;99.90
55173;DHT22;41061;52.822;6.860;2024-01-10T06:34:36;-4.80;99.90
55173;DHT22;41061;52.822;6.860;2024-01-10T06:37:02;-4.70;99.90
55173;DHT22;41061;52.822;6.860;2024-01-10T06:39:28;-4.70;99.90
55173;DHT22;41061;52.822;6.860;2024-01-10T06:41:54;-4.70;99.90
55173;DHT22;41061;52.822;6.860;2024-01-10T06:44:20;-4.80;99.90
55173;DHT22;41061;52.822;6.860;2024-01-10T06:46:46;-4.80;99.90
55173;DHT22;41061;52.822;6.860;2024-01-10T06:49:12;-4.80;99.90
55173;DHT22;41061;52.822;6.860;2024-01-10T06:51:38;-4.80;99.90
55173;DHT22;41061;52.822;6.860;2024-01-10T06:54:04;-4.80;99.90
55173;DHT22;41061;52.822;6.860;2024-01-10T06:56:33;-4.80;99.90
55173;DHT22;41061;52.822;6.860;2024-01-10T06:59:00;-4.80;99.90
55173;DHT22;41061;52.822;6.860;2024-01-10T07:01:26;-4.80;99.90
55173;DHT22;41061;52.822;6.860;2024-01-10T07:03:53;-4.80;99.90
55173;DHT22;41061;52.822;6.860;2024-01-10T07:06:20;-4.70;99.90
55173;DHT22;41061;52.822;6.860;2024-01-10T07:08:48;-4.80;99.90
55173;DHT22;41061;52.822;6.860;2024-01-10T07:11:15;-4.80;99.90
55173;DHT22;41061;52.822;6.860;2024-01-10T07:13:41;-4.80;99.90
55173;DHT22;41061;52.822;6.860;2024-01-10T07:16:08;-4.70;99.90
55173;DHT22;41061;52.822;6.860;2024-01-10T07:18:33;-4.70;99.90
55173;DHT22;41061;52.822;6.860;2024-01-10T07:20:59;-4.70;99.90
55173;DHT22;41061;52.822;6.860;2024-01-10T07:23:25;-4.70;99.90
55173;DHT22;41061;52.822;6.860;2024-01-10T07:25:51;-4.70;99.90
55173;DHT22;41061;52.822;6.860;2024-01-10T07:28:17;-4.70;99.90
55173;DHT22;41061;52.822;6.860;2024-01-10T07:30:44;-4.70;99.90
55173;DHT22;41061;52.822;6.860;2024-01-10T07:33:10;-4.60;99.90
55173;DHT22;41061;52.822;6.860;2024-01-10T07:35:36;-4.60;99.90
55173;DHT22;41061;52.822;6.860;2024-01-10T07:38:04;-4.60;99.90
55173;DHT22;41061;52.822;6.860;2024-01-10T07:40:29;-4.70;99.90
55173;DHT22;41061;52.822;6.860;2024-01-10T07:42:56;-4.70;99.90
55173;DHT22;41061;52.822;6.860;2024-01-10T07:45:22;-4.70;99.90
55173;DHT22;41061;52.822;6.860;2024-01-10T07:47:48;-4.70;99.90
55173;DHT22;41061;52.822;6.860;2024-01-10T07:50:14;-4.70;99.90
55173;DHT22;41061;52.822;6.860;2024-01-10T07:52:40;-4.60;99.90
55173;DHT22;41061;52.822;6.860;2024-01-10T07:55:06;-4.60;99.90
55173;DHT22;41061;52.822;6.860;2024-01-10T07:57:33;-4.60;99.90
55173;DHT22;41061;52.822;6.860;2024-01-10T07:59:59;-4.50;99.90
55173;DHT22;41061;52.822;6.860;2024-01-10T08:02:25;-4.50;99.90
55173;DHT22;41061;52.822;6.860;2024-01-10T08:04:52;-4.50;99.90
55173;DHT22;41061;52.822;6.860;2024-01-10T08:07:17;-4.50;99.90
55173;DHT22;41061;52.822;6.860;2024-01-10T08:09:43;-4.50;99.90
55173;DHT22;41061;52.822;6.860;2024-01-10T08:12:09;-4.40;99.90
55173;DHT22;41061;52.822;6.860;2024-01-10T08:14:37;-4.40;99.90
55173;DHT22;41061;52.822;6.860;2024-01-10T08:17:03;-4.40;99.90
55173;DHT22;41061;52.822;6.860;2024-01-10T08:19:29;-4.40;99.90
55173;DHT22;41061;52.822;6.860;2024-01-10T08:21:55;-4.40;99.90
55173;DHT22;41061;52.822;6.860;2024-01-10T08:24:22;-4.40;99.90
55173;DHT22;41061;52.822;6.860;2024-01-10T08:26:48;-4.30;99.90
55173;DHT22;41061;52.822;6.860;2024-01-10T08:29:18;-4.30;99.90
55173;DHT22;41061;52.822;6.860;2024-01-10T08:31:45;-4.30;99.90
55173;DHT22;41061;52.822;6.860;2024-01-10T08:34:11;-4.20;99.90
55173;DHT22;41061;52.822;6.860;2024-01-10T08:36:37;-4.20;99.90
55173;DHT22;41061;52.822;6.860;2024-01-10T08:39:03;-4.20;99.90
55173;DHT22;41061;52.822;6.860;2024-01-10T08:41:30;-4.20;99.90
55173;DHT22;41061;52.822;6.860;2024-01-10T08:43:56;-4.10;99.90
55173;DHT22;41061;52.822;6.860;2024-01-10T08:46:22;-4.10;99.90
55173;DHT22;41061;52.822;6.860;2024-01-10T08:48:51;-4.10;99.90
55173;DHT22;41061;52.822;6.860;2024-01-10T08:51:17;-4.10;99.90
55173;DHT22;41061;52.822;6.860;2024-01-10T08:53:43;-4.00;99.90
55173;DHT22;41061;52.822;6.860;2024-01-10T08:56:09;-4.00;99.90
55173;DHT22;41061;52.822;6.860;2024-01-10T08:58:35;-3.90;99.90
55173;DHT22;41061;52.822;6.860;2024-01-10T09:01:02;-3.90;99.90
55173;DHT22;41061;52.822;6.860;2024-01-10T09:03:29;-3.90;99.90
55173;DHT22;41061;52.822;6.860;2024-01-10T09:05:56;-3.80;99.90
55173;DHT22;41061;52.822;6.860;2024-01-10T09:08:22;-3.80;99.90
55173;DHT22;41061;52.822;6.860;2024-01-10T09:10:48;-3.80;99.90
55173;DHT22;41061;52.822;6.860;2024-01-10T09:13:15;-3.80;99.90
55173;DHT22;41061;52.822;6.860;2024-01-10T09:15:41;-3.70;99.90
55173;DHT22;41061;52.822;6.860;2024-01-10T09:18:07;-3.60;99.90
55173;DHT22;41061;52.822;6.860;2024-01-10T09:20:32;-3.60;99.90
55173;DHT22;41061;52.822;6.860;2024-01-10T09:22:58;-3.50;99.90
55173;DHT22;41061;52.822;6.860;2024-01-10T09:25:26;-3.50;99.90
55173;DHT22;41061;52.822;6.860;2024-01-10T09:27:51;-3.50;99.90
55173;DHT22;41061;52.822;6.860;2024-01-10T09:30:18;-3.40;99.90
55173;DHT22;41061;52.822;6.860;2024-01-10T09:32:44;-3.40;99.90
55173;DHT22;41061;52.822;6.860;2024-01-10T09:35:10;-3.30;99.90
55173;DHT22;41061;52.822;6.860;2024-01-10T09:37:36;-3.30;99.90
55173;DHT22;41061;52.822;6.860;2024-01-10T09:40:02;-3.30;99.90
55173;DHT22;41061;52.822;6.860;2024-01-10T09:42:29;-3.30;99.90
55173;DHT22;41061;52.822;6.860;2024-01-10T09:44:57;-3.20;99.90
55173;DHT22;41061;52.822;6.860;2024-01-10T09:47:24;-3.10;99.90
55173;DHT22;41061;52.822;6.860;2024-01-10T09:49:51;-3.10;99.90
55173;DHT22;41061;52.822;6.860;2024-01-10T09:52:25;-3.00;99.90
55173;DHT22;41061;52.822;6.860;2024-01-10T09:54:56;-2.90;99.90
55173;DHT22;41061;52.822;6.860;2024-01-10T09:57:25;-2.90;99.90
55173;DHT22;41061;52.822;6.860;2024-01-10T09:59:51;-2.80;99.90
55173;DHT22;41061;52.822;6.860;2024-01-10T10:02:19;-2.70;99.90
55173;DHT22;41061;52.822;6.860;2024-01-10T10:04:59;-2.60;99.90
55173;DHT22;41061;52.822;6.860;2024-01-10T10:07:28;-2.60;99.90
55173;DHT22;41061;52.822;6.860;2024-01-10T10:09:54;-2.50;99.90
55173;DHT22;41061;52.822;6.860;2024-01-10T10:12:22;-2.40;99.90
55173;DHT22;41061;52.822;6.860;2024-01-10T10:14:49;-2.30;99.90
55173;DHT22;41061;52.822;6.860;2024-01-10T10:17:16;-2.30;99.90
55173;DHT22;41061;52.822;6.860;2024-01-10T10:19:43;-2.30;99.90
55173;DHT22;41061;52.822;6.860;2024-01-10T10:22:10;-2.20;99.90
55173;DHT22;41061;52.822;6.860;2024-01-10T10:24:36;-2.10;99.90
55173;DHT22;41061;52.822;6.860;2024-01-10T10:27:08;-2.10;99.90
55173;DHT22;41061;52.822;6.860;2024-01-10T10:29:36;-2.00;99.90
55173;DHT22;41061;52.822;6.860;2024-01-10T10:32:03;-2.00;99.90
55173;DHT22;41061;52.822;6.860;2024-01-10T10:34:31;-2.00;99.90
55173;DHT22;41061;52.822;6.860;2024-01-10T10:36:58;-2.10;99.90
55173;DHT22;41061;52.822;6.860;2024-01-10T10:39:23;-1.80;99.90
55173;DHT22;41061;52.822;6.860;2024-01-10T10:41:51;-1.80;99.90
55173;DHT22;41061;52.822;6.860;2024-01-10T10:44:19;-1.70;99.90
55173;DHT22;41061;52.822;6.860;2024-01-10T10:46:50;-1.60;99.90
55173;DHT22;41061;52.822;6.860;2024-01-10T10:49:18;-1.60;99.90
55173;DHT22;41061;52.822;6.860;2024-01-10T10:51:48;-1.60;99.90
55173;DHT22;41061;52.822;6.860;2024-01-10T10:54:15;-1.50;99.90
55173;DHT22;41061;52.822;6.860;2024-01-10T10:56:43;-1.40;99.90
55173;DHT22;41061;52.822;6.860;2024-01-10T10:59:10;-1.40;99.90
55173;DHT22;41061;52.822;6.860;2024-01-10T11:01:39;-1.40;99.90
55173;DHT22;41061;52.822;6.860;2024-01-10T11:04:10;-1.40;99.90
55173;DHT22;41061;52.822;6.860;2024-01-10T11:06:40;-1.30;99.90
55173;DHT22;41061;52.822;6.860;2024-01-10T11:09:09;-1.30;99.90
55173;DHT22;41061;52.822;6.860;2024-01-10T11:12:02;-1.30;99.90
55173;DHT22;41061;52.822;6.860;2024-01-10T11:20:21;-1.20;99.90
55173;DHT22;41061;52.822;6.860;2024-01-10T11:25:40;-1.10;99.90
55173;DHT22;41061;52.822;6.860;2024-01-10T11:28:06;-1.00;99.90
55173;DHT22;41061;52.822;6.860;2024-01-10T11:30:36;-1.00;99.90
55173;DHT22;41061;52.822;6.860;2024-01-10T11:33:21;-1.00;99.90
55173;DHT22;41061;52.822;6.860;2024-01-10T11:36:06;-1.00;99.90
55173;DHT22;41061;52.822;6.860;2024-01-10T11:38:32;-0.90;99.90
55173;DHT22;41061;52.822;6.860;2024-01-10T11:40:57;-0.90;99.90
55173;DHT22;41061;52.822;6.860;2024-01-10T11:43:26;-0.90;99.90
55173;DHT22;41061;52.822;6.860;2024-01-10T11:45:54;-0.90;99.90
55173;DHT22;41061;52.822;6.860;2024-01-10T11:48:27;-0.90;99.90
55173;DHT22;41061;52.822;6.860;2024-01-10T11:50:54;-0.80;99.90
55173;DHT22;41061;52.822;6.860;2024-01-10T11:59:05;-0.70;99.90
55173;DHT22;41061;52.822;6.860;2024-01-10T12:01:35;-0.70;99.90
55173;DHT22;41061;52.822;6.860;2024-01-10T12:04:02;-0.70;99.90
55173;DHT22;41061;52.822;6.860;2024-01-10T12:06:29;-0.60;99.90
55173;DHT22;41061;52.822;6.860;2024-01-10T12:08:55;-0.60;99.90
55173;DHT22;41061;52.822;6.860;2024-01-10T12:11:24;-0.60;99.90
55173;DHT22;41061;52.822;6.860;2024-01-10T12:13:50;-0.50;99.90
55173;DHT22;41061;52.822;6.860;2024-01-10T12:16:15;-0.60;99.90
55173;DHT22;41061;52.822;6.860;2024-01-10T12:18:43;-0.50;99.90
55173;DHT22;41061;52.822;6.860;2024-01-10T12:21:09;-0.50;99.90
55173;DHT22;41061;52.822;6.860;2024-01-10T12:23:39;-0.40;99.90
55173;DHT22;41061;52.822;6.860;2024-01-10T12:26:14;-0.40;99.90
55173;DHT22;41061;52.822;6.860;2024-01-10T12:28:40;-0.40;99.90
55173;DHT22;41061;52.822;6.860;2024-01-10T12:31:08;-0.40;99.90
55173;DHT22;41061;52.822;6.860;2024-01-10T12:33:36;-0.40;99.90
55173;DHT22;41061;52.822;6.860;2024-01-10T12:36:04;-0.30;99.90
55173;DHT22;41061;52.822;6.860;2024-01-10T12:38:31;-0.30;99.90
55173;DHT22;41061;52.822;6.860;2024-01-10T12:43:24;-0.30;99.90
55173;DHT22;41061;52.822;6.860;2024-01-10T12:46:07;-0.30;99.90
55173;DHT22;41061;52.822;6.860;2024-01-10T12:48:34;-0.30;99.90
55173;DHT22;41061;52.822;6.860;2024-01-10T12:51:06;-0.40;99.90
55173;DHT22;41061;52.822;6.860;2024-01-10T12:53:36;-0.40;99.90
55173;DHT22;41061;52.822;6.860;2024-01-10T12:56:03;-0.40;99.90
55173;DHT22;41061;52.822;6.860;2024-01-10T12:58:30;-0.30;99.90
55173;DHT22;41061;52.822;6.860;2024-01-10T13:00:56;-0.30;99.90
55173;DHT22;41061;52.822;6.860;2024-01-10T13:03:22;-0.30;99.90
55173;DHT22;41061;52.822;6.860;2024-01-10T13:05:49;-0.30;99.90
55173;DHT22;41061;52.822;6.860;2024-01-10T13:08:15;-0.30;99.90
55173;DHT22;41061;52.822;6.860;2024-01-10T13:10:41;-0.30;99.90
55173;DHT22;41061;52.822;6.860;2024-01-10T13:13:07;-0.30;99.90
55173;DHT22;41061;52.822;6.860;2024-01-10T13:15:33;-0.30;99.90
55173;DHT22;41061;52.822;6.860;2024-01-10T13:17:58;-0.40;99.90
55173;DHT22;41061;52.822;6.860;2024-01-10T13:20:25;-0.30;99.90
55173;DHT22;41061;52.822;6.860;2024-01-10T13:22:51;-0.40;99.90
55173;DHT22;41061;52.822;6.860;2024-01-10T13:25:19;-0.30;99.90
55173;DHT22;41061;52.822;6.860;2024-01-10T13:27:52;-0.30;99.90
55173;DHT22;41061;52.822;6.860;2024-01-10T13:30:18;-0.30;99.90
55173;DHT22;41061;52.822;6.860;2024-01-10T13:32:45;-0.30;99.90
55173;DHT22;41061;52.822;6.860;2024-01-10T13:35:15;-0.30;99.90
55173;DHT22;41061;52.822;6.860;2024-01-10T13:37:46;-0.30;99.90
55173;DHT22;41061;52.822;6.860;2024-01-10T13:40:12;-0.30;99.90
55173;DHT22;41061;52.822;6.860;2024-01-10T13:42:39;-0.30;99.90
55173;DHT22;41061;52.822;6.860;2024-01-10T13:45:09;-0.30;99.90
55173;DHT22;41061;52.822;6.860;2024-01-10T13:47:38;-0.30;99.90
55173;DHT22;41061;52.822;6.860;2024-01-10T13:50:07;-0.30;99.90
55173;DHT22;41061;52.822;6.860;2024-01-10T13:52:34;-0.30;99.90
55173;DHT22;41061;52.822;6.860;2024-01-10T13:55:00;-0.20;99.90
55173;DHT22;41061;52.822;6.860;2024-01-10T13:57:27;-0.30;99.90
55173;DHT22;41061;52.822;6.860;2024-01-10T13:59:52;-0.20;99.90
55173;DHT22;41061;52.822;6.860;2024-01-10T14:02:22;-0.20;99.90
55173;DHT22;41061;52.822;6.860;2024-01-10T14:04:59;-0.20;99.90
55173;DHT22;41061;52.822;6.860;2024-01-10T14:07:26;-0.20;99.90
55173;DHT22;41061;52.822;6.860;2024-01-10T14:09:52;-0.20;99.90
55173;DHT22;41061;52.822;6.860;2024-01-10T14:12:21;-0.20;99.90
55173;DHT22;41061;52.822;6.860;2024-01-10T14:14:47;-0.20;99.90
55173;DHT22;41061;52.822;6.860;2024-01-10T14:17:13;-0.20;99.90
55173;DHT22;41061;52.822;6.860;2024-01-10T14:19:39;-0.20;99.90
55173;DHT22;41061;52.822;6.860;2024-01-10T14:22:05;-0.20;99.90
55173;DHT22;41061;52.822;6.860;2024-01-10T14:24:31;-0.20;99.90
55173;DHT22;41061;52.822;6.860;2024-01-10T14:26:58;-0.20;99.90
55173;DHT22;41061;52.822;6.860;2024-01-10T14:29:24;-0.20;99.90
55173;DHT22;41061;52.822;6.860;2024-01-10T14:31:49;-0.20;99.90
55173;DHT22;41061;52.822;6.860;2024-01-10T14:34:15;-0.20;99.90
55173;DHT22;41061;52.822;6.860;2024-01-10T14:36:41;-0.20;99.90
55173;DHT22;41061;52.822;6.860;2024-01-10T14:39:07;-0.20;99.90
55173;DHT22;41061;52.822;6.860;2024-01-10T14:41:33;-0.20;99.90
55173;DHT22;41061;52.822;6.860;2024-01-10T14:44:00;-0.20;99.90
55173;DHT22;41061;52.822;6.860;2024-01-10T14:46:26;-0.20;99.90
55173;DHT22;41061;52.822;6.860;2024-01-10T14:48:53;-0.20;99.90
55173;DHT22;41061;52.822;6.860;2024-01-10T14:51:19;-0.20;99.90
55173;DHT22;41061;52.822;6.860;2024-01-10T14:53:45;-0.10;99.90
55173;DHT22;41061;52.822;6.860;2024-01-10T14:56:11;-0.10;99.90
55173;DHT22;41061;52.822;6.860;2024-01-10T14:58:36;-0.20;99.90
55173;DHT22;41061;52.822;6.860;2024-01-10T15:01:09;-0.20;99.90
55173;DHT22;41061;52.822;6.860;2024-01-10T15:03:34;-0.20;99.90
55173;DHT22;41061;52.822;6.860;2024-01-10T15:06:00;-0.30;99.90
55173;DHT22;41061;52.822;6.860;2024-01-10T15:08:26;-0.30;99.90
55173;DHT22;41061;52.822;6.860;2024-01-10T15:10:52;-0.40;99.90
55173;DHT22;41061;52.822;6.860;2024-01-10T15:13:17;-0.40;99.90
55173;DHT22;41061;52.822;6.860;2024-01-10T15:15:44;-0.40;99.90
55173;DHT22;41061;52.822;6.860;2024-01-10T15:18:10;-0.50;99.90
55173;DHT22;41061;52.822;6.860;2024-01-10T15:20:36;-0.60;99.90
55173;DHT22;41061;52.822;6.860;2024-01-10T15:23:01;-0.60;99.90
55173;DHT22;41061;52.822;6.860;2024-01-10T15:25:27;-0.70;99.90
55173;DHT22;41061;52.822;6.860;2024-01-10T15:27:53;-0.70;99.90
55173;DHT22;41061;52.822;6.860;2024-01-10T15:30:20;-0.80;99.90
55173;DHT22;41061;52.822;6.860;2024-01-10T15:32:48;-0.80;99.90
55173;DHT22;41061;52.822;6.860;2024-01-10T15:35:15;-0.80;99.90
55173;DHT22;41061;52.822;6.860;2024-01-10T15:37:41;-0.90;99.90
55173;DHT22;41061;52.822;6.860;2024-01-10T15:40:08;-1.00;99.90
55173;DHT22;41061;52.822;6.860;2024-01-10T15:42:39;-1.00;99.90
55173;DHT22;41061;52.822;6.860;2024-01-10T15:45:14;-1.10;99.90